sensor_id;sensor_type;location;lat;lon;timestamp;temperature;humidity
4693;DHT22;11710;48.024;16.296;2022-08-11T00:01:04;21.20;74.60
4693;DHT22;11710;48.024;16.296;2022-08-11T00:03:34;21.20;74.70
4693;DHT22;11710;48.024;16.296;2022-08-11T00:06:02;21.20;74.80
4693;DHT22;11710;48.024;16.296;2022-08-11T00:08:30;21.10;74.80
4693;DHT22;11710;48.024;16.296;2022-08-11T00:11:00;21.10;75.10
4693;DHT22;11710;48.024;16.296;2022-08-11T00:13:33;21.00;75.20
4693;DHT22;11710;48.024;16.296;2022-08-11T00:16:01;21.00;75.70
4693;DHT22;11710;48.024;16.296;2022-08-11T00:18:29;21.00;75.50
4693;DHT22;11710;48.024;16.296;2022-08-11T00:21:07;21.00;75.70
4693;DHT22;11710;48.024;16.296;2022-08-11T00:23:40;21.00;75.50
4693;DHT22;11710;48.024;16.296;2022-08-11T00:26:07;21.00;75.70
4693;DHT22;11710;48.024;16.296;2022-08-11T00:28:35;21.00;75.90
4693;DHT22;11710;48.024;16.296;2022-08-11T00:31:04;21.00;75.70
4693;DHT22;11710;48.024;16.296;2022-08-11T00:33:36;20.90;75.80
4693;DHT22;11710;48.024;16.296;2022-08-11T00:36:06;20.90;75.90
4693;DHT22;11710;48.024;16.296;2022-08-11T00:38:37;20.90;76.10
4693;DHT22;11710;48.024;16.296;2022-08-11T00:41:15;20.90;76.30
4693;DHT22;11710;48.024;16.296;2022-08-11T00:44:09;20.80;76.60
4693;DHT22;11710;48.024;16.296;2022-08-11T00:46:45;20.70;76.80
4693;DHT22;11710;48.024;16.296;2022-08-11T00:49:22;20.70;77.00
4693;DHT22;11710;48.024;16.296;2022-08-11T00:52:12;20.60;76.90
4693;DHT22;11710;48.024;16.296;2022-08-11T00:55:06;20.60;77.10
4693;DHT22;11710;48.024;16.296;2022-08-11T00:58:23;20.60;77.10
4693;DHT22;11710;48.024;16.296;2022-08-11T01:01:15;20.60;77.20
4693;DHT22;11710;48.024;16.296;2022-08-11T01:04:16;20.50;77.70
4693;DHT22;11710;48.024;16.296;2022-08-11T01:07:01;20.50;77.70
4693;DHT22;11710;48.024;16.296;2022-08-11T01:09:58;20.40;77.70
4693;DHT22;11710;48.024;16.296;2022-08-11T01:12:42;20.40;77.90
4693;DHT22;11710;48.024;16.296;2022-08-11T01:15:35;20.40;78.40
4693;DHT22;11710;48.024;16.296;2022-08-11T01:18:44;20.40;77.80
4693;DHT22;11710;48.024;16.296;2022-08-11T01:25:05;20.40;77.90
4693;DHT22;11710;48.024;16.296;2022-08-11T01:31:29;20.40;78.20
4693;DHT22;11710;48.024;16.296;2022-08-11T01:34:51;20.40;78.50
4693;DHT22;11710;48.024;16.296;2022-08-11T01:40:50;20.30;78.40
4693;DHT22;11710;48.024;16.296;2022-08-11T01:46:49;20.30;79.30
4693;DHT22;11710;48.024;16.296;2022-08-11T01:49:25;20.30;79.50
4693;DHT22;11710;48.024;16.296;2022-08-11T01:52:08;20.20;79.50
4693;DHT22;11710;48.024;16.296;2022-08-11T01:54:42;20.10;80.30
4693;DHT22;11710;48.024;16.296;2022-08-11T01:57:19;20.10;81.10
4693;DHT22;11710;48.024;16.296;2022-08-11T01:59:53;19.90;81.40
4693;DHT22;11710;48.024;16.296;2022-08-11T02:02:32;19.90;82.00
4693;DHT22;11710;48.024;16.296;2022-08-11T02:05:27;19.60;82.50
4693;DHT22;11710;48.024;16.296;2022-08-11T02:10:35;19.50;83.40
4693;DHT22;11710;48.024;16.296;2022-08-11T02:13:33;19.40;84.30
4693;DHT22;11710;48.024;16.296;2022-08-11T02:16:11;19.30;85.10
4693;DHT22;11710;48.024;16.296;2022-08-11T02:18:42;19.20;85.70
4693;DHT22;11710;48.024;16.296;2022-08-11T02:21:40;19.10;86.10
4693;DHT22;11710;48.024;16.296;2022-08-11T02:24:29;19.10;86.60
4693;DHT22;11710;48.024;16.296;2022-08-11T02:27:03;19.10;86.90
4693;DHT22;11710;48.024;16.296;2022-08-11T02:29:37;19.00;87.30
4693;DHT22;11710;48.024;16.296;2022-08-11T02:32:14;19.00;87.70
4693;DHT22;11710;48.024;16.296;2022-08-11T02:35:09;18.90;88.00
4693;DHT22;11710;48.024;16.296;2022-08-11T02:37:49;18.90;88.50
4693;DHT22;11710;48.024;16.296;2022-08-11T02:40:29;18.80;88.80
4693;DHT22;11710;48.024;16.296;2022-08-11T02:43:21;18.80;89.30
4693;DHT22;11710;48.024;16.296;2022-08-11T02:45:59;18.70;89.50
4693;DHT22;11710;48.024;16.296;2022-08-11T02:48:37;18.70;89.80
4693;DHT22;11710;48.024;16.296;2022-08-11T02:51:29;18.70;90.10
4693;DHT22;11710;48.024;16.296;2022-08-11T02:54:07;18.60;90.30
4693;DHT22;11710;48.024;16.296;2022-08-11T02:56:45;18.60;90.40
4693;DHT22;11710;48.024;16.296;2022-08-11T02:59:24;18.50;90.60
4693;DHT22;11710;48.024;16.296;2022-08-11T03:02:15;18.50;90.70
4693;DHT22;11710;48.024;16.296;2022-08-11T03:04:58;18.40;91.00
4693;DHT22;11710;48.024;16.296;2022-08-11T03:07:29;18.30;91.20
4693;DHT22;11710;48.024;16.296;2022-08-11T03:10:04;18.20;91.40
4693;DHT22;11710;48.024;16.296;2022-08-11T03:12:45;18.20;91.80
4693;DHT22;11710;48.024;16.296;2022-08-11T03:15:42;18.00;92.50
4693;DHT22;11710;48.024;16.296;2022-08-11T03:18:37;17.80;93.30
4693;DHT22;11710;48.024;16.296;2022-08-11T03:21:15;17.70;93.60
4693;DHT22;11710;48.024;16.296;2022-08-11T03:23:48;17.70;94.00
4693;DHT22;11710;48.024;16.296;2022-08-11T03:26:25;17.60;94.60
4693;DHT22;11710;48.024;16.296;2022-08-11T03:29:02;17.50;94.90
4693;DHT22;11710;48.024;16.296;2022-08-11T03:31:34;17.60;95.20
4693;DHT22;11710;48.024;16.296;2022-08-11T03:34:05;17.60;95.60
4693;DHT22;11710;48.024;16.296;2022-08-11T03:36:58;17.50;95.80
4693;DHT22;11710;48.024;16.296;2022-08-11T03:39:39;17.50;96.10
4693;DHT22;11710;48.024;16.296;2022-08-11T03:42:14;17.60;96.10
4693;DHT22;11710;48.024;16.296;2022-08-11T03:44:58;17.50;96.00
4693;DHT22;11710;48.024;16.296;2022-08-11T03:47:57;17.60;96.40
4693;DHT22;11710;48.024;16.296;2022-08-11T03:50:46;17.50;96.50
4693;DHT22;11710;48.024;16.296;2022-08-11T04:00:02;17.50;96.90
4693;DHT22;11710;48.024;16.296;2022-08-11T04:03:00;17.60;97.10
4693;DHT22;11710;48.024;16.296;2022-08-11T04:06:07;17.70;97.40
4693;DHT22;11710;48.024;16.296;2022-08-11T04:09:00;17.60;97.20
4693;DHT22;11710;48.024;16.296;2022-08-11T04:11:42;17.50;97.60
4693;DHT22;11710;48.024;16.296;2022-08-11T04:14:28;17.30;98.10
4693;DHT22;11710;48.024;16.296;2022-08-11T04:18:04;17.30;98.30
4693;DHT22;11710;48.024;16.296;2022-08-11T04:21:01;17.30;98.70
4693;DHT22;11710;48.024;16.296;2022-08-11T04:23:55;17.40;98.70
4693;DHT22;11710;48.024;16.296;2022-08-11T04:29:44;17.60;98.80
4693;DHT22;11710;48.024;16.296;2022-08-11T04:32:35;17.70;99.20
4693;DHT22;11710;48.024;16.296;2022-08-11T04:35:19;17.80;99.20
4693;DHT22;11710;48.024;16.296;2022-08-11T04:38:23;18.90;98.80
4693;DHT22;11710;48.024;16.296;2022-08-11T04:41:28;20.90;96.40
4693;DHT22;11710;48.024;16.296;2022-08-11T04:47:17;25.90;86.20
4693;DHT22;11710;48.024;16.296;2022-08-11T04:50:17;28.10;80.50
4693;DHT22;11710;48.024;16.296;2022-08-11T04:53:25;30.30;74.50
4693;DHT22;11710;48.024;16.296;2022-08-11T04:56:15;32.50;68.90
4693;DHT22;11710;48.024;16.296;2022-08-11T05:05:34;37.30;57.40
4693;DHT22;11710;48.024;16.296;2022-08-11T05:14:29;40.60;50.20
4693;DHT22;11710;48.024;16.296;2022-08-11T05:17:26;41.80;48.10
4693;DHT22;11710;48.024;16.296;2022-08-11T05:20:14;42.80;46.30
4693;DHT22;11710;48.024;16.296;2022-08-11T05:23:03;43.90;44.60
4693;DHT22;11710;48.024;16.296;2022-08-11T05:25:50;44.70;42.50
4693;DHT22;11710;48.024;16.296;2022-08-11T05:28:40;45.40;40.90
4693;DHT22;11710;48.024;16.296;2022-08-11T05:31:35;46.20;39.80
4693;DHT22;11710;48.024;16.296;2022-08-11T05:34:22;46.90;38.70
4693;DHT22;11710;48.024;16.296;2022-08-11T05:37:12;47.40;38.00
4693;DHT22;11710;48.024;16.296;2022-08-11T05:39:44;47.60;37.10
4693;DHT22;11710;48.024;16.296;2022-08-11T05:42:30;47.80;36.40
4693;DHT22;11710;48.024;16.296;2022-08-11T05:45:17;48.20;35.70
4693;DHT22;11710;48.024;16.296;2022-08-11T05:48:02;48.60;35.50
4693;DHT22;11710;48.024;16.296;2022-08-11T05:50:52;48.70;34.60
4693;DHT22;11710;48.024;16.296;2022-08-11T05:53:45;48.50;34.50
4693;DHT22;11710;48.024;16.296;2022-08-11T05:56:33;47.00;34.50
4693;DHT22;11710;48.024;16.296;2022-08-11T05:59:00;44.50;35.70
4693;DHT22;11710;48.024;16.296;2022-08-11T06:01:29;42.40;37.00
4693;DHT22;11710;48.024;16.296;2022-08-11T06:03:58;40.30;38.70
4693;DHT22;11710;48.024;16.296;2022-08-11T06:06:56;38.80;40.70
4693;DHT22;11710;48.024;16.296;2022-08-11T06:09:27;37.10;42.00
4693;DHT22;11710;48.024;16.296;2022-08-11T06:11:59;36.00;44.10
4693;DHT22;11710;48.024;16.296;2022-08-11T06:14:27;34.90;44.80
4693;DHT22;11710;48.024;16.296;2022-08-11T06:16:57;33.90;46.20
4693;DHT22;11710;48.024;16.296;2022-08-11T06:19:32;33.10;47.40
4693;DHT22;11710;48.024;16.296;2022-08-11T06:22:02;32.60;48.90
4693;DHT22;11710;48.024;16.296;2022-08-11T06:24:30;32.20;49.50
4693;DHT22;11710;48.024;16.296;2022-08-11T06:26:59;31.60;51.40
4693;DHT22;11710;48.024;16.296;2022-08-11T06:29:27;31.30;51.70
4693;DHT22;11710;48.024;16.296;2022-08-11T06:31:57;31.00;52.60
4693;DHT22;11710;48.024;16.296;2022-08-11T06:34:33;30.50;53.50
4693;DHT22;11710;48.024;16.296;2022-08-11T06:37:17;30.00;53.60
4693;DHT22;11710;48.024;16.296;2022-08-11T06:39:51;29.40;54.30
4693;DHT22;11710;48.024;16.296;2022-08-11T06:42:33;29.10;55.00
4693;DHT22;11710;48.024;16.296;2022-08-11T06:45:09;28.80;55.40
4693;DHT22;11710;48.024;16.296;2022-08-11T06:47:43;28.30;56.30
4693;DHT22;11710;48.024;16.296;2022-08-11T06:50:15;27.80;57.70
4693;DHT22;11710;48.024;16.296;2022-08-11T06:53:01;27.20;59.00
4693;DHT22;11710;48.024;16.296;2022-08-11T06:55:29;26.90;59.90
4693;DHT22;11710;48.024;16.296;2022-08-11T06:58:18;26.70;60.00
4693;DHT22;11710;48.024;16.296;2022-08-11T07:01:07;26.70;60.80
4693;DHT22;11710;48.024;16.296;2022-08-11T07:03:39;26.80;60.90
4693;DHT22;11710;48.024;16.296;2022-08-11T07:06:24;26.80;60.90
4693;DHT22;11710;48.024;16.296;2022-08-11T07:09:08;26.80;61.00
4693;DHT22;11710;48.024;16.296;2022-08-11T07:12:07;26.90;61.30
4693;DHT22;11710;48.024;16.296;2022-08-11T07:14:56;26.90;60.70
4693;DHT22;11710;48.024;16.296;2022-08-11T07:17:59;26.70;60.90
4693;DHT22;11710;48.024;16.296;2022-08-11T07:20:47;26.60;61.50
4693;DHT22;11710;48.024;16.296;2022-08-11T07:23:35;26.80;61.50
4693;DHT22;11710;48.024;16.296;2022-08-11T07:26:23;26.80;61.00
4693;DHT22;11710;48.024;16.296;2022-08-11T07:29:11;26.80;60.70
4693;DHT22;11710;48.024;16.296;2022-08-11T07:31:43;26.60;61.00
4693;DHT22;11710;48.024;16.296;2022-08-11T07:34:19;26.50;61.90
4693;DHT22;11710;48.024;16.296;2022-08-11T07:36:50;26.60;62.00
4693;DHT22;11710;48.024;16.296;2022-08-11T07:39:21;26.80;61.50
4693;DHT22;11710;48.024;16.296;2022-08-11T07:41:49;26.80;61.60
4693;DHT22;11710;48.024;16.296;2022-08-11T07:44:17;27.00;61.40
4693;DHT22;11710;48.024;16.296;2022-08-11T07:46:47;27.10;61.40
4693;DHT22;11710;48.024;16.296;2022-08-11T07:49:34;27.10;61.60
4693;DHT22;11710;48.024;16.296;2022-08-11T07:52:19;27.30;61.30
4693;DHT22;11710;48.024;16.296;2022-08-11T07:54:55;27.40;60.90
4693;DHT22;11710;48.024;16.296;2022-08-11T07:57:22;27.30;60.70
4693;DHT22;11710;48.024;16.296;2022-08-11T08:00:08;27.30;60.80
4693;DHT22;11710;48.024;16.296;2022-08-11T08:02:54;27.30;60.70
4693;DHT22;11710;48.024;16.296;2022-08-11T08:05:41;27.30;61.00
4693;DHT22;11710;48.024;16.296;2022-08-11T08:08:26;27.40;60.70
4693;DHT22;11710;48.024;16.296;2022-08-11T08:11:10;27.10;60.70
4693;DHT22;11710;48.024;16.296;2022-08-11T08:13:55;27.20;61.20
4693;DHT22;11710;48.024;16.296;2022-08-11T08:16:40;27.60;61.30
4693;DHT22;11710;48.024;16.296;2022-08-11T08:19:26;28.00;60.10
4693;DHT22;11710;48.024;16.296;2022-08-11T08:21:54;28.30;59.70
4693;DHT22;11710;48.024;16.296;2022-08-11T08:24:22;28.40;59.30
4693;DHT22;11710;48.024;16.296;2022-08-11T08:26:49;28.40;58.50
4693;DHT22;11710;48.024;16.296;2022-08-11T08:29:27;28.30;58.90
4693;DHT22;11710;48.024;16.296;2022-08-11T08:32:12;28.10;59.60
4693;DHT22;11710;48.024;16.296;2022-08-11T08:34:42;27.90;58.60
4693;DHT22;11710;48.024;16.296;2022-08-11T08:37:10;27.70;59.40
4693;DHT22;11710;48.024;16.296;2022-08-11T08:39:37;27.90;58.60
4693;DHT22;11710;48.024;16.296;2022-08-11T08:42:09;28.00;58.40
4693;DHT22;11710;48.024;16.296;2022-08-11T08:44:41;28.00;57.10
4693;DHT22;11710;48.024;16.296;2022-08-11T08:47:13;27.80;57.90
4693;DHT22;11710;48.024;16.296;2022-08-11T08:49:45;27.90;57.90
4693;DHT22;11710;48.024;16.296;2022-08-11T08:52:17;28.10;58.60
4693;DHT22;11710;48.024;16.296;2022-08-11T08:54:45;28.50;59.50
4693;DHT22;11710;48.024;16.296;2022-08-11T08:57:16;28.70;57.20
4693;DHT22;11710;48.024;16.296;2022-08-11T08:59:47;28.70;56.30
4693;DHT22;11710;48.024;16.296;2022-08-11T09:02:15;28.60;57.70
4693;DHT22;11710;48.024;16.296;2022-08-11T09:04:45;28.30;58.60
4693;DHT22;11710;48.024;16.296;2022-08-11T09:07:15;28.30;58.40
4693;DHT22;11710;48.024;16.296;2022-08-11T09:09:44;28.30;58.20
4693;DHT22;11710;48.024;16.296;2022-08-11T09:12:13;28.40;58.10
4693;DHT22;11710;48.024;16.296;2022-08-11T09:14:42;28.60;58.30
4693;DHT22;11710;48.024;16.296;2022-08-11T09:17:29;28.90;57.80
4693;DHT22;11710;48.024;16.296;2022-08-11T09:20:00;29.20;58.00
4693;DHT22;11710;48.024;16.296;2022-08-11T09:22:30;29.40;56.00
4693;DHT22;11710;48.024;16.296;2022-08-11T09:25:16;29.30;56.70
4693;DHT22;11710;48.024;16.296;2022-08-11T09:28:01;29.30;56.40
4693;DHT22;11710;48.024;16.296;2022-08-11T09:30:29;29.50;56.00
4693;DHT22;11710;48.024;16.296;2022-08-11T09:32:58;29.80;56.00
4693;DHT22;11710;48.024;16.296;2022-08-11T09:35:30;29.90;54.80
4693;DHT22;11710;48.024;16.296;2022-08-11T09:37:59;29.80;55.50
4693;DHT22;11710;48.024;16.296;2022-08-11T09:40:46;29.80;55.10
4693;DHT22;11710;48.024;16.296;2022-08-11T09:43:16;30.20;54.80
4693;DHT22;11710;48.024;16.296;2022-08-11T09:46:02;30.30;53.70
4693;DHT22;11710;48.024;16.296;2022-08-11T09:48:34;30.40;53.40
4693;DHT22;11710;48.024;16.296;2022-08-11T09:51:03;30.00;53.70
4693;DHT22;11710;48.024;16.296;2022-08-11T09:53:35;30.00;54.50
4693;DHT22;11710;48.024;16.296;2022-08-11T09:56:04;30.30;53.60
4693;DHT22;11710;48.024;16.296;2022-08-11T09:58:45;30.40;54.60
4693;DHT22;11710;48.024;16.296;2022-08-11T10:01:14;30.60;54.50
4693;DHT22;11710;48.024;16.296;2022-08-11T10:03:54;30.90;53.50
4693;DHT22;11710;48.024;16.296;2022-08-11T10:06:24;31.00;53.00
4693;DHT22;11710;48.024;16.296;2022-08-11T10:09:09;30.50;53.00
4693;DHT22;11710;48.024;16.296;2022-08-11T10:11:39;30.30;53.30
4693;DHT22;11710;48.024;16.296;2022-08-11T10:14:07;30.20;53.00
4693;DHT22;11710;48.024;16.296;2022-08-11T10:16:52;30.30;52.80
4693;DHT22;11710;48.024;16.296;2022-08-11T10:19:20;30.20;53.20
4693;DHT22;11710;48.024;16.296;2022-08-11T10:21:51;30.20;52.80
4693;DHT22;11710;48.024;16.296;2022-08-11T10:24:32;30.00;53.10
4693;DHT22;11710;48.024;16.296;2022-08-11T10:27:18;30.20;55.80
4693;DHT22;11710;48.024;16.296;2022-08-11T10:29:45;30.60;53.10
4693;DHT22;11710;48.024;16.296;2022-08-11T10:32:38;30.40;52.20
4693;DHT22;11710;48.024;16.296;2022-08-11T10:35:23;30.30;52.20
4693;DHT22;11710;48.024;16.296;2022-08-11T10:37:52;30.50;52.90
4693;DHT22;11710;48.024;16.296;2022-08-11T10:40:22;30.60;51.60
4693;DHT22;11710;48.024;16.296;2022-08-11T10:42:53;30.40;52.40
4693;DHT22;11710;48.024;16.296;2022-08-11T10:45:33;30.30;53.20
4693;DHT22;11710;48.024;16.296;2022-08-11T10:48:19;30.20;53.60
4693;DHT22;11710;48.024;16.296;2022-08-11T10:50:48;30.30;53.70
4693;DHT22;11710;48.024;16.296;2022-08-11T10:53:35;30.60;52.70
4693;DHT22;11710;48.024;16.296;2022-08-11T10:56:21;31.00;52.20
4693;DHT22;11710;48.024;16.296;2022-08-11T10:59:07;31.10;48.40
4693;DHT22;11710;48.024;16.296;2022-08-11T11:01:37;30.80;49.30
4693;DHT22;11710;48.024;16.296;2022-08-11T11:04:07;30.80;49.40
4693;DHT22;11710;48.024;16.296;2022-08-11T11:06:49;30.60;49.50
4693;DHT22;11710;48.024;16.296;2022-08-11T11:09:21;30.20;51.10
4693;DHT22;11710;48.024;16.296;2022-08-11T11:11:53;30.10;51.40
4693;DHT22;11710;48.024;16.296;2022-08-11T11:14:41;30.00;51.50
4693;DHT22;11710;48.024;16.296;2022-08-11T11:17:27;29.70;51.30
4693;DHT22;11710;48.024;16.296;2022-08-11T11:20:18;29.60;52.60
4693;DHT22;11710;48.024;16.296;2022-08-11T11:22:50;29.60;51.80
4693;DHT22;11710;48.024;16.296;2022-08-11T11:25:34;29.70;52.20
4693;DHT22;11710;48.024;16.296;2022-08-11T11:28:18;29.80;51.70
4693;DHT22;11710;48.024;16.296;2022-08-11T11:31:03;30.00;51.70
4693;DHT22;11710;48.024;16.296;2022-08-11T11:33:46;30.10;50.80
4693;DHT22;11710;48.024;16.296;2022-08-11T11:36:25;30.10;50.80
4693;DHT22;11710;48.024;16.296;2022-08-11T11:38:54;30.10;52.10
4693;DHT22;11710;48.024;16.296;2022-08-11T11:41:24;30.30;50.90
4693;DHT22;11710;48.024;16.296;2022-08-11T11:43:53;30.60;50.00
4693;DHT22;11710;48.024;16.296;2022-08-11T11:46:21;30.80;49.10
4693;DHT22;11710;48.024;16.296;2022-08-11T11:48:48;30.60;49.00
4693;DHT22;11710;48.024;16.296;2022-08-11T11:51:15;30.30;48.70
4693;DHT22;11710;48.024;16.296;2022-08-11T11:53:44;30.00;48.90
4693;DHT22;11710;48.024;16.296;2022-08-11T11:56:13;29.50;49.90
4693;DHT22;11710;48.024;16.296;2022-08-11T11:58:42;29.30;50.50
4693;DHT22;11710;48.024;16.296;2022-08-11T12:01:28;29.30;50.60
4693;DHT22;11710;48.024;16.296;2022-08-11T12:03:56;29.40;49.70
4693;DHT22;11710;48.024;16.296;2022-08-11T12:06:24;29.50;49.70
4693;DHT22;11710;48.024;16.296;2022-08-11T12:08:54;29.70;48.90
4693;DHT22;11710;48.024;16.296;2022-08-11T12:11:22;29.80;49.00
4693;DHT22;11710;48.024;16.296;2022-08-11T12:14:09;30.10;49.20
4693;DHT22;11710;48.024;16.296;2022-08-11T12:16:39;30.30;47.70
4693;DHT22;11710;48.024;16.296;2022-08-11T12:19:08;30.60;46.70
4693;DHT22;11710;48.024;16.296;2022-08-11T12:21:38;30.60;46.10
4693;DHT22;11710;48.024;16.296;2022-08-11T12:24:27;30.80;47.00
4693;DHT22;11710;48.024;16.296;2022-08-11T12:27:24;30.90;46.80
4693;DHT22;11710;48.024;16.296;2022-08-11T12:29:55;30.90;45.90
4693;DHT22;11710;48.024;16.296;2022-08-11T12:32:24;31.00;48.20
4693;DHT22;11710;48.024;16.296;2022-08-11T12:34:52;31.00;47.90
4693;DHT22;11710;48.024;16.296;2022-08-11T12:37:26;31.00;48.00
4693;DHT22;11710;48.024;16.296;2022-08-11T12:39:59;30.80;47.70
4693;DHT22;11710;48.024;16.296;2022-08-11T12:42:46;30.80;48.10
4693;DHT22;11710;48.024;16.296;2022-08-11T12:45:33;30.90;48.30
4693;DHT22;11710;48.024;16.296;2022-08-11T12:48:06;31.00;47.60
4693;DHT22;11710;48.024;16.296;2022-08-11T12:50:55;31.00;47.20
4693;DHT22;11710;48.024;16.296;2022-08-11T12:53:51;30.80;46.10
4693;DHT22;11710;48.024;16.296;2022-08-11T12:56:20;30.60;46.90
4693;DHT22;11710;48.024;16.296;2022-08-11T12:59:07;30.50;47.10
4693;DHT22;11710;48.024;16.296;2022-08-11T13:01:53;30.40;47.60
4693;DHT22;11710;48.024;16.296;2022-08-11T13:04:39;30.30;48.20
4693;DHT22;11710;48.024;16.296;2022-08-11T13:07:24;30.30;47.30
4693;DHT22;11710;48.024;16.296;2022-08-11T13:09:52;30.20;46.80
4693;DHT22;11710;48.024;16.296;2022-08-11T13:12:21;30.10;47.70
4693;DHT22;11710;48.024;16.296;2022-08-11T13:15:07;30.00;47.80
4693;DHT22;11710;48.024;16.296;2022-08-11T13:17:38;30.20;48.10
4693;DHT22;11710;48.024;16.296;2022-08-11T13:20:08;30.10;47.30
4693;DHT22;11710;48.024;16.296;2022-08-11T13:22:38;30.30;47.40
4693;DHT22;11710;48.024;16.296;2022-08-11T13:25:07;30.30;46.00
4693;DHT22;11710;48.024;16.296;2022-08-11T13:27:34;30.40;45.40
4693;DHT22;11710;48.024;16.296;2022-08-11T13:30:02;30.40;45.70
4693;DHT22;11710;48.024;16.296;2022-08-11T13:32:49;30.40;46.00
4693;DHT22;11710;48.024;16.296;2022-08-11T13:35:17;30.30;46.40
4693;DHT22;11710;48.024;16.296;2022-08-11T13:37:46;30.40;46.20
4693;DHT22;11710;48.024;16.296;2022-08-11T13:40:16;30.50;45.70
4693;DHT22;11710;48.024;16.296;2022-08-11T13:42:46;30.30;45.20
4693;DHT22;11710;48.024;16.296;2022-08-11T13:45:14;30.20;46.00
4693;DHT22;11710;48.024;16.296;2022-08-11T13:47:41;30.20;45.60
4693;DHT22;11710;48.024;16.296;2022-08-11T13:50:11;30.20;45.50
4693;DHT22;11710;48.024;16.296;2022-08-11T13:52:40;30.20;45.60
4693;DHT22;11710;48.024;16.296;2022-08-11T13:55:09;30.20;46.00
4693;DHT22;11710;48.024;16.296;2022-08-11T13:57:47;30.20;45.70
4693;DHT22;11710;48.024;16.296;2022-08-11T14:00:15;30.30;46.50
4693;DHT22;11710;48.024;16.296;2022-08-11T14:02:43;30.20;45.30
4693;DHT22;11710;48.024;16.296;2022-08-11T14:05:15;29.90;45.50
4693;DHT22;11710;48.024;16.296;2022-08-11T14:07:47;30.00;45.50
4693;DHT22;11710;48.024;16.296;2022-08-11T14:10:17;30.20;45.10
4693;DHT22;11710;48.024;16.296;2022-08-11T14:12:50;30.20;44.90
4693;DHT22;11710;48.024;16.296;2022-08-11T14:15:40;30.20;44.80
4693;DHT22;11710;48.024;16.296;2022-08-11T14:18:12;30.30;45.20
4693;DHT22;11710;48.024;16.296;2022-08-11T14:20:48;30.10;45.20
4693;DHT22;11710;48.024;16.296;2022-08-11T14:23:37;30.10;45.30
4693;DHT22;11710;48.024;16.296;2022-08-11T14:26:06;30.20;45.60
4693;DHT22;11710;48.024;16.296;2022-08-11T14:28:59;30.10;45.20
4693;DHT22;11710;48.024;16.296;2022-08-11T14:31:29;30.20;46.00
4693;DHT22;11710;48.024;16.296;2022-08-11T14:34:00;30.20;45.70
4693;DHT22;11710;48.024;16.296;2022-08-11T14:36:34;30.30;45.70
4693;DHT22;11710;48.024;16.296;2022-08-11T14:39:05;30.40;45.90
4693;DHT22;11710;48.024;16.296;2022-08-11T14:41:33;30.40;45.80
4693;DHT22;11710;48.024;16.296;2022-08-11T14:44:18;30.40;45.70
4693;DHT22;11710;48.024;16.296;2022-08-11T14:47:03;30.40;46.10
4693;DHT22;11710;48.024;16.296;2022-08-11T14:49:33;30.40;45.40
4693;DHT22;11710;48.024;16.296;2022-08-11T14:52:03;30.20;46.10
4693;DHT22;11710;48.024;16.296;2022-08-11T14:54:32;30.30;46.30
4693;DHT22;11710;48.024;16.296;2022-08-11T14:57:18;30.20;46.40
4693;DHT22;11710;48.024;16.296;2022-08-11T14:59:47;30.10;47.30
4693;DHT22;11710;48.024;16.296;2022-08-11T15:02:16;30.10;47.40
4693;DHT22;11710;48.024;16.296;2022-08-11T15:05:13;30.10;47.30
4693;DHT22;11710;48.024;16.296;2022-08-11T15:07:42;29.80;46.30
4693;DHT22;11710;48.024;16.296;2022-08-11T15:10:11;29.60;46.70
4693;DHT22;11710;48.024;16.296;2022-08-11T15:12:39;29.50;47.20
4693;DHT22;11710;48.024;16.296;2022-08-11T15:15:08;29.50;47.90
4693;DHT22;11710;48.024;16.296;2022-08-11T15:17:56;29.50;48.20
4693;DHT22;11710;48.024;16.296;2022-08-11T15:20:26;29.40;48.50
4693;DHT22;11710;48.024;16.296;2022-08-11T15:23:12;29.30;48.30
4693;DHT22;11710;48.024;16.296;2022-08-11T15:25:59;29.30;48.50
4693;DHT22;11710;48.024;16.296;2022-08-11T15:28:29;29.20;48.80
4693;DHT22;11710;48.024;16.296;2022-08-11T15:31:14;29.20;49.30
4693;DHT22;11710;48.024;16.296;2022-08-11T15:34:03;29.10;49.40
4693;DHT22;11710;48.024;16.296;2022-08-11T15:36:56;29.00;49.70
4693;DHT22;11710;48.024;16.296;2022-08-11T15:39:47;29.00;49.90
4693;DHT22;11710;48.024;16.296;2022-08-11T15:42:34;29.00;50.10
4693;DHT22;11710;48.024;16.296;2022-08-11T15:45:23;28.90;50.20
4693;DHT22;11710;48.024;16.296;2022-08-11T15:48:11;28.80;50.20
4693;DHT22;11710;48.024;16.296;2022-08-11T15:50:46;28.70;50.80
4693;DHT22;11710;48.024;16.296;2022-08-11T15:53:19;28.70;50.80
4693;DHT22;11710;48.024;16.296;2022-08-11T15:55:50;28.60;50.80
4693;DHT22;11710;48.024;16.296;2022-08-11T15:58:18;28.50;51.10
4693;DHT22;11710;48.024;16.296;2022-08-11T16:01:04;28.50;51.40
4693;DHT22;11710;48.024;16.296;2022-08-11T16:03:53;28.50;51.50
4693;DHT22;11710;48.024;16.296;2022-08-11T16:06:48;28.30;52.40
4693;DHT22;11710;48.024;16.296;2022-08-11T16:09:22;28.00;52.90
4693;DHT22;11710;48.024;16.296;2022-08-11T16:11:52;27.90;53.40
4693;DHT22;11710;48.024;16.296;2022-08-11T16:14:22;27.70;53.60
4693;DHT22;11710;48.024;16.296;2022-08-11T16:17:10;27.50;54.20
4693;DHT22;11710;48.024;16.296;2022-08-11T16:19:39;27.30;54.70
4693;DHT22;11710;48.024;16.296;2022-08-11T16:22:09;27.30;54.90
4693;DHT22;11710;48.024;16.296;2022-08-11T16:24:40;27.30;55.10
4693;DHT22;11710;48.024;16.296;2022-08-11T16:27:12;27.20;55.40
4693;DHT22;11710;48.024;16.296;2022-08-11T16:29:42;27.30;55.60
4693;DHT22;11710;48.024;16.296;2022-08-11T16:32:12;27.30;55.10
4693;DHT22;11710;48.024;16.296;2022-08-11T16:34:47;27.30;55.40
4693;DHT22;11710;48.024;16.296;2022-08-11T16:37:33;27.30;55.10
4693;DHT22;11710;48.024;16.296;2022-08-11T16:40:20;27.20;55.20
4693;DHT22;11710;48.024;16.296;2022-08-11T16:42:50;27.10;55.00
4693;DHT22;11710;48.024;16.296;2022-08-11T16:45:36;27.00;55.30
4693;DHT22;11710;48.024;16.296;2022-08-11T16:48:22;27.00;55.90
4693;DHT22;11710;48.024;16.296;2022-08-11T16:50:52;26.90;56.00
4693;DHT22;11710;48.024;16.296;2022-08-11T16:53:19;26.90;56.50
4693;DHT22;11710;48.024;16.296;2022-08-11T16:55:48;26.90;56.00
4693;DHT22;11710;48.024;16.296;2022-08-11T16:58:17;26.80;55.70
4693;DHT22;11710;48.024;16.296;2022-08-11T17:01:03;26.80;54.90
4693;DHT22;11710;48.024;16.296;2022-08-11T17:03:32;26.70;54.50
4693;DHT22;11710;48.024;16.296;2022-08-11T17:06:19;26.70;54.50
4693;DHT22;11710;48.024;16.296;2022-08-11T17:09:05;26.60;54.70
4693;DHT22;11710;48.024;16.296;2022-08-11T17:11:55;26.40;54.60
4693;DHT22;11710;48.024;16.296;2022-08-11T17:14:45;26.20;54.70
4693;DHT22;11710;48.024;16.296;2022-08-11T17:17:15;26.10;54.90
4693;DHT22;11710;48.024;16.296;2022-08-11T17:19:47;26.10;55.10
4693;DHT22;11710;48.024;16.296;2022-08-11T17:22:15;26.10;55.40
4693;DHT22;11710;48.024;16.296;2022-08-11T17:25:02;26.10;55.10